createdAt,value
2018-08-30T00:01:34.833Z,85.40
2018-08-30T00:04:04.488Z,85.20
2018-08-30T00:06:33.359Z,85.60
2018-08-30T00:09:01.872Z,86.10
2018-08-30T00:11:32.842Z,85.80
2018-08-30T00:14:02.050Z,85.90
2018-08-30T00:16:30.971Z,85.40
2018-08-30T00:18:59.567Z,85.50
2018-08-30T00:21:28.340Z,85.10
2018-08-30T00:23:57.036Z,84.60
2018-08-30T00:26:25.827Z,84.60
2018-08-30T00:28:55.251Z,84.10
2018-08-30T00:31:24.200Z,83.40
2018-08-30T00:33:53.858Z,83.70
2018-08-30T00:36:22.443Z,84.10
2018-08-30T00:38:51.105Z,84.20
2018-08-30T00:41:19.862Z,84.80
2018-08-30T00:43:48.398Z,84.20
2018-08-30T00:46:17.202Z,83.40
2018-08-30T00:48:45.899Z,83.40
2018-08-30T00:51:16.923Z,83.80
2018-08-30T00:53:45.569Z,83.40
2018-08-30T00:56:14.283Z,83.40
2018-08-30T00:58:42.979Z,83.40
2018-08-30T01:01:12.174Z,83.30
2018-08-30T01:03:40.986Z,83.50
2018-08-30T01:06:09.656Z,83.30
2018-08-30T01:08:39.259Z,84.00
2018-08-30T01:11:08.078Z,83.90
2018-08-30T01:13:36.961Z,84.00
2018-08-30T01:16:05.688Z,82.70
2018-08-30T01:18:34.700Z,83.40
2018-08-30T01:21:03.552Z,82.70
2018-08-30T01:23:32.854Z,83.50
2018-08-30T01:26:01.433Z,82.30
2018-08-30T01:28:31.179Z,83.20
2018-08-30T01:30:59.966Z,82.30
2018-08-30T01:33:28.466Z,82.10
2018-08-30T01:35:57.529Z,82.40
2018-08-30T01:38:26.102Z,81.90
2018-08-30T01:40:55.406Z,82.50
2018-08-30T01:43:24.106Z,81.80
2018-08-30T01:45:52.796Z,82.30
2018-08-30T01:48:22.222Z,82.70
2018-08-30T01:50:51.188Z,82.00
2018-08-30T01:53:20.575Z,82.50
2018-08-30T01:55:49.232Z,82.80
2018-08-30T01:58:18.021Z,82.10
2018-08-30T02:00:47.363Z,81.20
2018-08-30T02:03:15.980Z,82.10
2018-08-30T02:05:44.926Z,82.90
2018-08-30T02:08:13.719Z,82.50
2018-08-30T02:10:42.325Z,82.10
2018-08-30T02:13:11.471Z,81.70
2018-08-30T02:15:40.130Z,81.80
2018-08-30T02:18:09.748Z,82.80
2018-08-30T02:20:39.654Z,82.40
2018-08-30T02:23:08.197Z,82.00
2018-08-30T02:25:36.819Z,81.60
2018-08-30T02:28:06.116Z,81.60
2018-08-30T02:30:34.915Z,81.70
2018-08-30T02:33:03.604Z,81.60
2018-08-30T02:35:32.190Z,82.30
2018-08-30T02:38:00.724Z,82.00
2018-08-30T02:40:30.125Z,81.20
2018-08-30T02:42:58.799Z,81.60
2018-08-30T02:45:28.294Z,81.10
2018-08-30T02:47:57.575Z,81.10
2018-08-30T02:50:26.989Z,82.40
2018-08-30T02:52:55.576Z,81.50
2018-08-30T02:55:24.197Z,81.70
2018-08-30T02:57:53.919Z,82.00
2018-08-30T03:00:23.900Z,82.20
2018-08-30T03:02:53.672Z,82.30
2018-08-30T03:05:22.174Z,81.70
2018-08-30T03:07:50.655Z,82.70
2018-08-30T03:10:19.897Z,81.30
2018-08-30T03:12:49.364Z,82.30
2018-08-30T03:15:17.855Z,81.80
2018-08-30T03:17:46.781Z,82.00
2018-08-30T03:20:15.861Z,81.00
2018-08-30T03:22:45.005Z,81.70
2018-08-30T03:25:13.614Z,82.10
2018-08-30T03:27:42.304Z,82.00
2018-08-30T03:30:10.984Z,82.90
2018-08-30T03:32:43.725Z,83.00
2018-08-30T03:35:13.086Z,82.10
2018-08-30T03:37:42.460Z,82.40
2018-08-30T03:40:10.939Z,82.00
2018-08-30T03:42:39.404Z,82.00
2018-08-30T03:45:08.049Z,82.50
2018-08-30T03:47:36.393Z,83.10
2018-08-30T03:50:06.002Z,81.90
2018-08-30T03:52:34.565Z,82.30
2018-08-30T03:55:03.865Z,83.10
2018-08-30T03:57:32.544Z,83.60
2018-08-30T04:00:01.233Z,82.10
2018-08-30T04:02:30.004Z,82.90
2018-08-30T04:04:58.634Z,83.40
2018-08-30T04:07:28.430Z,84.00
2018-08-30T04:09:57.199Z,84.10
2018-08-30T04:12:25.983Z,83.60
2018-08-30T04:14:54.491Z,83.60
2018-08-30T04:17:22.902Z,83.00
2018-08-30T04:19:52.860Z,83.10
2018-08-30T04:22:21.550Z,83.60
2018-08-30T04:24:52.818Z,83.60
2018-08-30T04:27:23.483Z,83.30
2018-08-30T04:29:55.158Z,83.40
2018-08-30T04:32:26.425Z,82.80
2018-08-30T04:34:56.443Z,83.30
2018-08-30T04:37:28.161Z,82.50
2018-08-30T04:40:02.887Z,83.70
2018-08-30T04:42:33.527Z,83.00
2018-08-30T04:45:03.041Z,83.10
2018-08-30T04:47:35.072Z,82.90
2018-08-30T04:50:05.091Z,81.80
2018-08-30T04:52:34.727Z,82.40
2018-08-30T04:55:03.474Z,82.00
2018-08-30T04:57:32.201Z,82.30
2018-08-30T05:00:00.766Z,81.40
2018-08-30T05:02:29.376Z,80.90
2018-08-30T05:05:01.531Z,81.00
2018-08-30T05:07:33.993Z,81.20
2018-08-30T05:10:03.943Z,80.30
2018-08-30T05:12:33.062Z,80.30
2018-08-30T05:15:01.700Z,80.60
2018-08-30T05:17:31.436Z,80.30
2018-08-30T05:19:59.989Z,80.50
2018-08-30T05:22:28.477Z,80.50
2018-08-30T05:24:57.019Z,79.80
2018-08-30T05:27:25.721Z,80.10
2018-08-30T05:29:56.793Z,79.70
2018-08-30T05:32:24.802Z,80.40
2018-08-30T05:34:53.249Z,79.90
2018-08-30T05:37:22.200Z,79.50
2018-08-30T05:39:50.656Z,79.80
2018-08-30T05:42:19.295Z,80.70
2018-08-30T05:44:47.962Z,79.80
2018-08-30T05:47:16.497Z,79.00
2018-08-30T05:49:45.075Z,79.10
2018-08-30T05:52:13.797Z,79.90
2018-08-30T05:54:44.064Z,78.90
2018-08-30T05:57:12.857Z,78.40
2018-08-30T05:59:41.510Z,78.30
2018-08-30T06:02:09.772Z,77.60
2018-08-30T06:04:38.398Z,78.70
2018-08-30T06:07:07.102Z,78.00
2018-08-30T06:09:35.599Z,78.30
2018-08-30T06:12:04.086Z,78.60
2018-08-30T06:14:32.790Z,78.20
2018-08-30T06:17:01.405Z,77.90
2018-08-30T06:19:30.095Z,77.50
2018-08-30T06:21:58.692Z,76.30
2018-08-30T06:24:28.474Z,76.20
2018-08-30T06:26:57.721Z,77.70
2018-08-30T06:29:26.705Z,75.70
2018-08-30T06:31:54.846Z,75.90
2018-08-30T06:34:23.359Z,75.50
2018-08-30T06:36:51.937Z,75.30
2018-08-30T06:39:21.174Z,74.30
2018-08-30T06:41:49.650Z,74.50
2018-08-30T06:44:19.238Z,74.90
2018-08-30T06:46:48.498Z,73.70
2018-08-30T06:49:17.357Z,73.10
2018-08-30T06:51:46.377Z,75.00
2018-08-30T06:54:15.748Z,74.00
2018-08-30T06:56:44.379Z,75.20
2018-08-30T06:59:14.969Z,73.40
2018-08-30T07:01:45.975Z,73.10
2018-08-30T07:04:15.243Z,73.20
2018-08-30T07:06:44.531Z,72.90
2018-08-30T07:09:13.095Z,71.30
2018-08-30T07:11:43.763Z,70.80
2018-08-30T07:14:12.425Z,70.20
2018-08-30T07:16:42.836Z,67.00
2018-08-30T07:19:12.009Z,67.20
2018-08-30T07:21:40.964Z,67.40
2018-08-30T07:24:11.130Z,65.90
2018-08-30T07:26:40.740Z,67.70
2018-08-30T07:29:10.486Z,66.20
2018-08-30T07:31:40.008Z,66.70
2018-08-30T07:34:08.703Z,67.70
2018-08-30T07:36:38.642Z,67.40
2018-08-30T07:39:10.368Z,66.20
2018-08-30T07:41:40.127Z,67.70
2018-08-30T07:44:09.608Z,67.00
2018-08-30T07:46:38.390Z,66.10
2018-08-30T07:49:08.090Z,66.40
2018-08-30T07:51:36.684Z,66.00
2018-08-30T07:54:05.852Z,67.10
2018-08-30T07:56:34.512Z,63.50
2018-08-30T07:59:03.203Z,64.80
2018-08-30T08:01:31.997Z,64.70
2018-08-30T08:04:00.502Z,61.70
2018-08-30T08:06:28.748Z,61.40
2018-08-30T08:08:57.542Z,62.00
2018-08-30T08:11:27.146Z,60.70
2018-08-30T08:13:55.935Z,60.60
2018-08-30T08:16:25.125Z,57.60
2018-08-30T08:18:53.773Z,55.00
2018-08-30T08:21:23.213Z,52.90
2018-08-30T08:23:51.804Z,53.00
2018-08-30T08:26:20.375Z,51.30
2018-08-30T08:28:50.649Z,50.30
2018-08-30T08:31:20.665Z,53.80
2018-08-30T08:33:50.367Z,51.20
2018-08-30T08:36:19.652Z,48.40
2018-08-30T08:38:49.058Z,47.60
2018-08-30T08:41:22.382Z,47.80
2018-08-30T08:43:52.077Z,45.10
2018-08-30T08:46:21.465Z,46.20
2018-08-30T08:48:50.831Z,47.20
2018-08-30T08:53:55.998Z,44.90
2018-08-30T08:56:25.040Z,47.10
2018-08-30T08:58:54.654Z,45.20
2018-08-30T09:01:23.235Z,44.50
2018-08-30T09:03:52.542Z,46.20
2018-08-30T09:06:21.068Z,45.20
2018-08-30T09:08:49.560Z,42.50
2018-08-30T09:11:18.067Z,41.60
2018-08-30T09:13:47.651Z,42.80
2018-08-30T09:16:16.247Z,41.80
2018-08-30T09:18:45.011Z,40.70
2018-08-30T09:21:13.722Z,40.70
2018-08-30T09:23:42.614Z,42.90
2018-08-30T09:26:11.458Z,40.20
2018-08-30T09:28:40.002Z,41.30
2018-08-30T09:31:08.777Z,38.30
2018-08-30T09:33:37.607Z,38.50
2018-08-30T09:36:06.611Z,37.70
2018-08-30T09:38:36.167Z,41.20
2018-08-30T09:41:05.601Z,42.10
2018-08-30T09:43:35.348Z,41.40
2018-08-30T09:46:04.676Z,43.80
2018-08-30T09:48:33.506Z,41.50
2018-08-30T09:51:03.699Z,38.90
2018-08-30T09:53:32.546Z,40.50
2018-08-30T09:56:03.049Z,38.40
2018-08-30T09:58:32.719Z,38.70
2018-08-30T10:01:07.028Z,37.50
2018-08-30T10:03:35.755Z,37.00
2018-08-30T10:06:05.533Z,36.00
2018-08-30T10:08:34.455Z,37.70
2018-08-30T10:11:03.771Z,39.10
2018-08-30T10:13:32.446Z,33.60
2018-08-30T10:16:01.250Z,37.70
2018-08-30T10:18:30.483Z,35.20
2018-08-30T10:20:59.532Z,36.10
2018-08-30T10:23:28.385Z,37.10
2018-08-30T10:25:57.311Z,35.30
2018-08-30T10:28:26.419Z,34.50
2018-08-30T10:30:55.235Z,32.30
2018-08-30T10:33:23.925Z,34.70
2018-08-30T10:35:52.917Z,35.40
2018-08-30T10:38:22.414Z,33.40
2018-08-30T10:40:51.687Z,35.40
2018-08-30T10:43:22.647Z,31.20
2018-08-30T10:45:52.281Z,32.30
2018-08-30T10:48:23.942Z,31.60
2018-08-30T10:50:52.286Z,32.70
2018-08-30T10:53:20.818Z,32.10
2018-08-30T10:55:51.541Z,32.80
2018-08-30T10:58:20.151Z,32.10
2018-08-30T11:00:49.348Z,33.60
2018-08-30T11:03:18.694Z,34.20
2018-08-30T11:05:48.473Z,35.00
2018-08-30T11:08:17.275Z,34.20
2018-08-30T11:10:45.743Z,33.90
2018-08-30T11:13:15.248Z,35.20
2018-08-30T11:15:43.647Z,36.00
2018-08-30T11:18:12.363Z,39.10
2018-08-30T11:20:40.927Z,35.30
2018-08-30T11:23:09.630Z,39.90
2018-08-30T11:25:38.184Z,36.20
2018-08-30T11:28:07.590Z,33.50
2018-08-30T11:30:38.774Z,36.90
2018-08-30T11:33:08.447Z,34.70
2018-08-30T11:35:38.488Z,33.80
2018-08-30T11:38:08.162Z,34.80
2018-08-30T11:40:37.632Z,32.90
2018-08-30T11:43:06.455Z,32.20
2018-08-30T11:45:35.623Z,32.90
2018-08-30T11:48:04.315Z,32.70
2018-08-30T11:50:36.062Z,32.60
2018-08-30T11:53:04.982Z,34.20
2018-08-30T11:55:34.559Z,30.70
2018-08-30T11:58:04.439Z,28.60
2018-08-30T12:00:33.716Z,28.50
2018-08-30T12:03:02.714Z,31.10
2018-08-30T12:05:32.077Z,31.30
2018-08-30T12:08:00.780Z,30.00
2018-08-30T12:10:29.906Z,31.40
2018-08-30T12:12:59.352Z,33.00
2018-08-30T12:15:28.078Z,30.60
2018-08-30T12:17:57.508Z,32.10
2018-08-30T12:20:26.843Z,32.40
2018-08-30T12:22:56.826Z,31.70
2018-08-30T12:25:26.375Z,34.80
2018-08-30T12:27:55.071Z,30.40
2018-08-30T12:30:23.817Z,32.30
2018-08-30T12:32:52.509Z,32.30
2018-08-30T12:35:21.944Z,32.80
2018-08-30T12:37:51.048Z,29.90
2018-08-30T12:40:19.841Z,30.50
2018-08-30T12:42:49.554Z,30.10
2018-08-30T12:45:19.344Z,30.70
2018-08-30T12:47:49.566Z,30.20
2018-08-30T12:50:18.431Z,31.30
2018-08-30T12:52:46.860Z,31.00
2018-08-30T12:55:16.681Z,32.00
2018-08-30T12:57:49.161Z,30.60
2018-08-30T13:00:18.145Z,30.50
2018-08-30T13:02:47.685Z,30.20
2018-08-30T13:07:50.682Z,30.30
2018-08-30T13:10:21.237Z,28.60
2018-08-30T13:12:49.894Z,30.00
2018-08-30T13:15:19.693Z,31.10
2018-08-30T13:17:49.677Z,30.20
2018-08-30T13:20:19.201Z,30.80
2018-08-30T13:22:48.591Z,31.00
2018-08-30T13:25:17.530Z,30.70
2018-08-30T13:27:46.144Z,28.80
2018-08-30T13:30:15.262Z,28.00
2018-08-30T13:32:44.252Z,29.00
2018-08-30T13:35:14.910Z,27.00
2018-08-30T13:37:44.488Z,30.80
2018-08-30T13:40:13.552Z,25.20
2018-08-30T13:42:42.817Z,26.00
2018-08-30T13:45:11.268Z,27.60
2018-08-30T13:47:40.130Z,27.90
2018-08-30T13:50:09.026Z,28.20
2018-08-30T13:52:37.489Z,28.00
2018-08-30T13:55:06.114Z,29.30
2018-08-30T13:57:35.565Z,29.20
2018-08-30T14:00:04.339Z,30.10
2018-08-30T14:02:33.873Z,27.50
2018-08-30T14:05:02.667Z,28.90
2018-08-30T14:07:33.701Z,28.80
2018-08-30T14:12:38.608Z,28.80
2018-08-30T14:15:08.516Z,30.00
2018-08-30T14:17:36.630Z,31.20
2018-08-30T14:20:06.493Z,27.10
2018-08-30T14:22:35.408Z,26.90
2018-08-30T14:25:04.461Z,27.10
2018-08-30T14:27:34.290Z,28.60
2018-08-30T14:30:02.931Z,27.10
2018-08-30T14:32:35.659Z,27.30
2018-08-30T14:37:42.533Z,28.90
2018-08-30T14:40:11.100Z,28.10
2018-08-30T14:42:40.102Z,25.20
2018-08-30T14:45:09.766Z,25.70
2018-08-30T14:47:40.295Z,25.90
2018-08-30T14:50:08.679Z,25.80
2018-08-30T14:52:37.348Z,26.10
2018-08-30T14:55:06.710Z,25.50
2018-08-30T14:57:35.931Z,25.00
2018-08-30T15:00:05.232Z,25.30
2018-08-30T15:02:33.641Z,25.10
2018-08-30T15:05:02.576Z,25.40
2018-08-30T15:07:31.442Z,26.90
2018-08-30T15:10:00.041Z,26.30
2018-08-30T15:12:28.570Z,24.80
2018-08-30T15:14:57.331Z,25.20
2018-08-30T15:17:27.763Z,26.70
2018-08-30T15:19:56.461Z,26.90
2018-08-30T15:22:25.685Z,26.90
2018-08-30T15:24:54.562Z,26.00
2018-08-30T15:27:24.527Z,27.00
2018-08-30T15:29:53.280Z,25.60
2018-08-30T15:32:23.977Z,26.10
2018-08-30T15:34:52.535Z,26.30
2018-08-30T15:37:21.180Z,26.40
2018-08-30T15:39:49.820Z,26.70
2018-08-30T15:42:18.714Z,25.90
2018-08-30T15:44:47.920Z,27.20
2018-08-30T15:47:16.770Z,26.20
2018-08-30T15:49:45.354Z,27.20
2018-08-30T15:54:50.506Z,26.70
2018-08-30T15:57:19.372Z,28.60
2018-08-30T15:59:48.453Z,29.00
2018-08-30T16:02:18.137Z,27.60
2018-08-30T16:04:46.666Z,28.60
2018-08-30T16:07:15.560Z,28.50
2018-08-30T16:09:44.170Z,27.90
2018-08-30T16:12:12.993Z,28.60
2018-08-30T16:14:42.204Z,29.30
2018-08-30T16:17:12.228Z,29.80
2018-08-30T16:19:41.722Z,29.30
2018-08-30T16:22:11.045Z,27.40
2018-08-30T16:24:40.442Z,29.30
2018-08-30T16:27:10.824Z,27.90
2018-08-30T16:29:40.110Z,29.00
2018-08-30T16:32:08.696Z,29.40
2018-08-30T16:34:37.332Z,28.40
2018-08-30T16:37:07.309Z,28.70
2018-08-30T16:39:35.795Z,29.60
2018-08-30T16:42:04.382Z,29.70
2018-08-30T16:44:32.908Z,29.00
2018-08-30T16:47:02.364Z,29.80
2018-08-30T16:49:31.874Z,31.00
2018-08-30T16:52:00.394Z,30.30
2018-08-30T16:54:29.661Z,31.00
2018-08-30T16:57:02.026Z,32.00
2018-08-30T16:59:30.756Z,30.00
2018-08-30T17:01:59.962Z,31.80
2018-08-30T17:04:30.550Z,32.10
2018-08-30T17:06:59.719Z,31.70
2018-08-30T17:09:28.908Z,32.40
2018-08-30T17:11:58.694Z,33.80
2018-08-30T17:14:28.264Z,32.90
2018-08-30T17:16:56.847Z,33.60
2018-08-30T17:19:30.388Z,33.40
2018-08-30T17:21:58.818Z,34.90
2018-08-30T17:24:27.550Z,33.90
2018-08-30T17:26:56.253Z,34.40
2018-08-30T17:29:24.983Z,34.40
2018-08-30T17:31:56.800Z,33.80
2018-08-30T17:34:25.312Z,35.00
2018-08-30T17:36:58.502Z,34.70
2018-08-30T17:39:27.269Z,35.50
2018-08-30T17:41:55.989Z,36.10
2018-08-30T17:44:24.565Z,35.90
2018-08-30T17:46:54.221Z,36.90
2018-08-30T17:49:22.854Z,37.00
2018-08-30T17:51:51.672Z,37.00
2018-08-30T17:54:20.950Z,38.30
2018-08-30T17:56:49.738Z,39.10
2018-08-30T17:59:18.303Z,39.50
2018-08-30T18:01:47.047Z,40.30
2018-08-30T18:04:17.159Z,40.90
2018-08-30T18:06:46.011Z,40.10
2018-08-30T18:09:14.903Z,40.80
2018-08-30T18:11:43.907Z,41.50
2018-08-30T18:14:12.551Z,41.50
2018-08-30T18:16:41.184Z,42.00
2018-08-30T18:19:09.978Z,43.30
2018-08-30T18:21:46.440Z,43.70
2018-08-30T18:24:15.183Z,44.30
2018-08-30T18:26:44.554Z,45.30
2018-08-30T18:29:14.052Z,46.50
2018-08-30T18:31:43.563Z,45.90
2018-08-30T18:34:12.079Z,46.80
2018-08-30T18:36:40.960Z,47.00
2018-08-30T18:39:10.736Z,47.10
2018-08-30T18:41:41.091Z,47.80
2018-08-30T18:44:09.755Z,48.50
2018-08-30T18:46:38.479Z,50.00
2018-08-30T18:49:07.207Z,49.30
2018-08-30T18:51:35.939Z,49.10
2018-08-30T18:54:07.983Z,49.90
2018-08-30T18:56:37.881Z,50.00
2018-08-30T18:59:07.327Z,50.60
2018-08-30T19:01:36.117Z,51.70
2018-08-30T19:04:04.797Z,51.60
2018-08-30T19:06:34.143Z,51.30
2018-08-30T19:09:04.058Z,51.80
2018-08-30T19:11:33.066Z,52.00
2018-08-30T19:14:02.470Z,52.40
2018-08-30T19:16:37.503Z,53.40
2018-08-30T19:19:13.297Z,52.60
2018-08-30T19:21:42.771Z,53.20
2018-08-30T19:24:17.325Z,54.30
2018-08-30T19:26:46.151Z,54.10
2018-08-30T19:29:17.739Z,53.50
2018-08-30T19:31:46.770Z,54.40
2018-08-30T19:34:16.137Z,55.00
2018-08-30T19:36:44.979Z,55.20
2018-08-30T19:39:14.156Z,55.60
2018-08-30T19:41:42.936Z,55.30
2018-08-30T19:44:11.735Z,55.40
2018-08-30T19:46:40.993Z,55.40
2018-08-30T19:49:09.752Z,54.60
2018-08-30T19:51:38.401Z,55.60
2018-08-30T19:54:06.796Z,56.40
2018-08-30T19:56:36.134Z,56.10
2018-08-30T19:59:04.750Z,56.10
2018-08-30T20:01:33.653Z,56.70
2018-08-30T20:04:04.423Z,56.70
2018-08-30T20:06:33.995Z,56.80
2018-08-30T20:09:03.159Z,57.20
2018-08-30T20:11:31.688Z,57.00
2018-08-30T20:14:00.578Z,56.90
2018-08-30T20:16:33.564Z,56.60
2018-08-30T20:19:02.234Z,57.40
2018-08-30T20:21:31.672Z,56.90
2018-08-30T20:24:00.329Z,56.50
2018-08-30T20:26:29.083Z,57.40
2018-08-30T20:28:57.817Z,57.90
2018-08-30T20:31:27.324Z,57.20
2018-08-30T20:33:56.750Z,57.70
2018-08-30T20:36:26.986Z,57.30
2018-08-30T20:38:55.672Z,58.90
2018-08-30T20:41:24.472Z,58.10
2018-08-30T20:43:56.062Z,58.10
2018-08-30T20:46:24.661Z,58.60
2018-08-30T20:48:53.301Z,58.40
2018-08-30T20:51:25.519Z,57.90
2018-08-30T20:53:54.590Z,58.30
2018-08-30T20:56:23.920Z,58.70
2018-08-30T20:58:53.884Z,59.00
2018-08-30T21:01:22.461Z,58.80
2018-08-30T21:03:50.941Z,58.60
2018-08-30T21:06:20.963Z,58.90
2018-08-30T21:08:49.865Z,59.00
2018-08-30T21:11:20.195Z,59.60
2018-08-30T21:13:49.327Z,60.00
2018-08-30T21:16:21.101Z,60.40
2018-08-30T21:18:49.911Z,60.70
2018-08-30T21:21:19.738Z,60.50
2018-08-30T21:23:50.339Z,60.50
2018-08-30T21:26:19.205Z,59.40
2018-08-30T21:28:54.320Z,61.30
2018-08-30T21:31:23.952Z,61.30
2018-08-30T21:33:54.151Z,61.70
2018-08-30T21:36:24.024Z,61.20
2018-08-30T21:38:52.884Z,61.70
2018-08-30T21:41:21.711Z,61.70
2018-08-30T21:43:52.286Z,61.90
2018-08-30T21:46:21.871Z,61.70
2018-08-30T21:48:50.951Z,62.40
2018-08-30T21:51:19.633Z,62.10
2018-08-30T21:53:49.329Z,62.90
2018-08-30T21:56:18.060Z,62.50
2018-08-30T21:58:47.390Z,62.60
2018-08-30T22:01:17.316Z,63.20
2018-08-30T22:03:46.095Z,63.50
2018-08-30T22:06:15.503Z,63.60
2018-08-30T22:08:46.788Z,63.80
2018-08-30T22:11:17.148Z,64.20
2018-08-30T22:13:46.814Z,64.80
2018-08-30T22:16:15.672Z,64.40
2018-08-30T22:18:44.386Z,65.00
2018-08-30T22:21:14.886Z,64.90
2018-08-30T22:23:44.403Z,65.00
2018-08-30T22:26:13.671Z,65.10
2018-08-30T22:28:44.306Z,65.20
2018-08-30T22:31:14.265Z,65.00
2018-08-30T22:33:45.550Z,65.20
2018-08-30T22:36:14.958Z,64.80
2018-08-30T22:38:43.735Z,64.90
2018-08-30T22:41:12.333Z,65.60
2018-08-30T22:43:41.145Z,65.40
2018-08-30T22:46:09.875Z,65.60
2018-08-30T22:48:40.051Z,66.60
2018-08-30T22:51:09.506Z,66.20
2018-08-30T22:53:42.694Z,66.40
2018-08-30T22:56:12.592Z,66.80
2018-08-30T22:58:43.019Z,67.10
2018-08-30T23:01:13.240Z,66.70
2018-08-30T23:03:42.392Z,66.60
2018-08-30T23:06:13.682Z,66.80
2018-08-30T23:08:42.820Z,67.00
2018-08-30T23:11:11.614Z,67.20
2018-08-30T23:13:40.242Z,67.10
2018-08-30T23:16:10.202Z,66.70
2018-08-30T23:18:38.932Z,67.00
2018-08-30T23:21:08.633Z,66.40
2018-08-30T23:23:38.331Z,68.00
2018-08-30T23:26:07.803Z,67.40
2018-08-30T23:28:36.906Z,68.00
2018-08-30T23:31:06.717Z,67.60
2018-08-30T23:33:35.325Z,67.60
2018-08-30T23:36:05.316Z,68.00
2018-08-30T23:38:34.091Z,67.80
2018-08-30T23:41:03.751Z,67.60
2018-08-30T23:43:33.229Z,67.70
2018-08-30T23:46:02.874Z,67.70
2018-08-30T23:48:32.193Z,68.80
2018-08-30T23:51:00.830Z,68.10
2018-08-30T23:53:31.148Z,68.70
2018-08-30T23:55:59.984Z,68.70
2018-08-30T23:58:46.045Z,68.70
